createdAt,value
2023-05-23T00:01:18.724Z,85.00
2023-05-23T00:04:21.197Z,85.10
2023-05-23T00:07:23.573Z,85.00
2023-05-23T00:10:25.892Z,85.00
2023-05-23T00:13:28.238Z,85.00
2023-05-23T00:16:30.588Z,85.00
2023-05-23T00:19:36.742Z,85.00
2023-05-23T00:22:43.233Z,85.00
2023-05-23T00:25:48.658Z,85.00
2023-05-23T00:28:51.071Z,85.10
2023-05-23T00:31:53.632Z,85.00
2023-05-23T00:34:56.331Z,85.00
2023-05-23T00:37:58.857Z,85.00
2023-05-23T00:41:02.496Z,85.00
2023-05-23T00:44:05.747Z,85.20
2023-05-23T00:47:08.956Z,85.10
2023-05-23T00:50:15.920Z,85.20
2023-05-23T00:53:18.848Z,85.20
2023-05-23T00:56:21.613Z,85.20
2023-05-23T00:59:27.586Z,85.20
2023-05-23T01:02:32.508Z,85.20
2023-05-23T01:05:34.914Z,85.30
2023-05-23T01:08:37.338Z,85.20
2023-05-23T01:12:06.052Z,85.30
2023-05-23T01:15:09.038Z,85.30
2023-05-23T01:18:20.062Z,85.20
2023-05-23T01:21:24.548Z,85.10
2023-05-23T01:24:26.811Z,85.20
2023-05-23T01:27:54.387Z,85.10
2023-05-23T01:30:59.025Z,85.10
2023-05-23T01:34:02.005Z,85.10
2023-05-23T01:37:12.053Z,85.10
2023-05-23T01:40:14.262Z,85.10
2023-05-23T01:43:16.762Z,85.00
2023-05-23T01:46:20.506Z,85.10
2023-05-23T01:49:24.374Z,85.10
2023-05-23T01:52:28.702Z,85.10
2023-05-23T01:55:31.498Z,85.10
2023-05-23T01:58:34.074Z,85.10
2023-05-23T02:01:38.620Z,85.10
2023-05-23T02:04:41.022Z,85.10
2023-05-23T02:07:43.659Z,85.10
2023-05-23T02:10:45.957Z,85.20
2023-05-23T02:13:48.388Z,85.10
2023-05-23T02:16:53.002Z,85.10
2023-05-23T02:19:56.991Z,85.10
2023-05-23T02:22:59.307Z,85.10
2023-05-23T02:26:01.902Z,85.10
2023-05-23T02:29:04.305Z,85.10
2023-05-23T02:32:06.895Z,85.10
2023-05-23T02:35:10.567Z,85.10
2023-05-23T02:38:12.985Z,85.20
2023-05-23T02:41:17.061Z,85.10
2023-05-23T02:44:20.008Z,85.00
2023-05-23T02:47:22.348Z,85.20
2023-05-23T02:50:24.632Z,85.10
2023-05-23T02:53:27.249Z,85.20
2023-05-23T02:56:30.716Z,85.20
2023-05-23T02:59:33.016Z,85.10
2023-05-23T03:02:35.327Z,85.10
2023-05-23T03:05:38.025Z,85.10
2023-05-23T03:08:44.043Z,85.10
2023-05-23T03:11:46.651Z,85.10
2023-05-23T03:14:49.150Z,85.00
2023-05-23T03:17:51.515Z,85.10
2023-05-23T03:20:54.006Z,85.00
2023-05-23T03:23:58.672Z,85.80
2023-05-23T03:27:02.208Z,85.00
2023-05-23T03:30:05.109Z,85.10
2023-05-23T03:33:07.779Z,85.00
2023-05-23T03:36:10.232Z,85.00
2023-05-23T03:39:12.659Z,85.00
2023-05-23T03:42:14.982Z,85.00
2023-05-23T03:45:18.537Z,85.00
2023-05-23T03:48:21.246Z,85.00
2023-05-23T03:51:24.520Z,85.00
2023-05-23T03:54:26.931Z,85.00
2023-05-23T03:57:29.209Z,85.00
2023-05-23T04:00:31.882Z,85.00
2023-05-23T04:03:36.006Z,85.00
2023-05-23T04:06:39.716Z,85.00
2023-05-23T04:09:42.015Z,84.90
2023-05-23T04:12:48.284Z,84.90
2023-05-23T04:15:53.157Z,85.60
2023-05-23T04:18:56.146Z,84.90
2023-05-23T04:21:58.454Z,85.00
2023-05-23T04:25:01.374Z,84.90
2023-05-23T04:28:08.141Z,84.90
2023-05-23T04:31:10.532Z,85.00
2023-05-23T04:34:13.585Z,84.90
2023-05-23T04:37:17.687Z,85.00
2023-05-23T04:40:20.387Z,85.00
2023-05-23T04:43:42.751Z,85.00
2023-05-23T04:47:02.805Z,85.10
2023-05-23T04:50:18.853Z,85.00
2023-05-23T04:53:21.521Z,84.90
2023-05-23T04:56:28.484Z,85.00
2023-05-23T04:59:32.179Z,85.00
2023-05-23T05:02:35.647Z,85.00
2023-05-23T05:05:38.785Z,85.10
2023-05-23T05:08:41.092Z,85.00
2023-05-23T05:11:45.198Z,85.10
2023-05-23T05:14:47.570Z,85.00
2023-05-23T05:17:50.263Z,85.10
2023-05-23T05:20:55.199Z,85.00
2023-05-23T05:23:57.889Z,85.00
2023-05-23T05:27:00.256Z,85.10
2023-05-23T05:30:05.299Z,85.10
2023-05-23T05:33:10.420Z,85.10
2023-05-23T05:36:13.061Z,85.00
2023-05-23T05:39:16.284Z,85.00
2023-05-23T05:42:18.664Z,85.00
2023-05-23T05:45:21.141Z,85.00
2023-05-23T05:48:24.603Z,85.00
2023-05-23T05:51:29.762Z,85.10
2023-05-23T05:54:32.098Z,85.10
2023-05-23T05:57:39.079Z,85.10
2023-05-23T06:00:44.521Z,85.10
2023-05-23T06:03:47.013Z,85.10
2023-05-23T06:06:49.581Z,85.00
2023-05-23T06:09:52.151Z,85.00
2023-05-23T06:12:54.524Z,85.00
2023-05-23T06:15:57.135Z,85.00
2023-05-23T06:19:00.213Z,85.00
2023-05-23T06:22:04.812Z,85.00
2023-05-23T06:25:08.024Z,85.00
2023-05-23T06:28:10.527Z,85.00
2023-05-23T06:31:12.977Z,85.00
2023-05-23T06:34:16.411Z,85.70
2023-05-23T06:37:18.735Z,85.00
2023-05-23T06:40:21.171Z,85.00
2023-05-23T06:43:23.612Z,85.00
2023-05-23T06:46:29.669Z,85.00
2023-05-23T06:49:32.179Z,84.90
2023-05-23T06:52:34.501Z,84.90
2023-05-23T06:55:38.236Z,85.00
2023-05-23T06:58:44.077Z,84.90
2023-05-23T07:01:47.779Z,85.00
2023-05-23T07:04:50.509Z,85.00
2023-05-23T07:08:07.600Z,85.00
2023-05-23T07:11:10.014Z,85.70
2023-05-23T07:14:20.542Z,85.00
2023-05-23T07:17:23.118Z,84.90
2023-05-23T07:20:25.601Z,85.00
2023-05-23T07:23:37.316Z,84.90
2023-05-23T07:26:39.752Z,84.90
2023-05-23T07:29:42.381Z,84.90
2023-05-23T07:32:46.302Z,84.80
2023-05-23T07:35:51.266Z,84.80
2023-05-23T07:38:53.750Z,84.80
2023-05-23T07:41:56.222Z,84.70
2023-05-23T07:44:58.639Z,84.70
2023-05-23T07:48:01.182Z,84.70
2023-05-23T07:51:06.290Z,84.80
2023-05-23T07:54:09.548Z,84.70
2023-05-23T07:57:16.961Z,84.80
2023-05-23T08:00:20.448Z,84.70
2023-05-23T08:03:26.728Z,84.60
2023-05-23T08:06:45.754Z,84.70
2023-05-23T08:10:01.939Z,84.60
2023-05-23T08:13:07.027Z,84.70
2023-05-23T08:16:16.096Z,84.70
2023-05-23T08:19:18.577Z,84.60
2023-05-23T08:22:21.816Z,84.50
2023-05-23T08:25:25.282Z,84.60
2023-05-23T08:28:28.200Z,84.60
2023-05-23T08:31:31.504Z,84.70
2023-05-23T08:34:34.726Z,84.60
2023-05-23T08:37:37.123Z,84.60
2023-05-23T08:40:41.853Z,84.60
2023-05-23T08:43:48.201Z,84.60
2023-05-23T08:46:58.711Z,84.60
2023-05-23T08:50:26.650Z,84.60
2023-05-23T08:53:31.408Z,84.70
2023-05-23T08:56:41.409Z,84.60
2023-05-23T08:59:46.282Z,84.60
2023-05-23T09:02:49.156Z,84.60
2023-05-23T09:06:13.653Z,84.60
2023-05-23T09:09:17.879Z,84.60
2023-05-23T09:12:22.596Z,84.60
2023-05-23T09:15:27.601Z,84.70
2023-05-23T09:18:39.742Z,84.70
2023-05-23T09:21:45.802Z,84.70
2023-05-23T09:25:03.306Z,84.70
2023-05-23T09:28:06.564Z,84.60
2023-05-23T09:31:12.708Z,84.70
2023-05-23T09:34:15.142Z,84.70
2023-05-23T09:37:19.753Z,84.60
2023-05-23T09:40:22.253Z,84.70
2023-05-23T09:43:31.015Z,84.80
2023-05-23T09:46:37.473Z,84.80
2023-05-23T09:49:41.794Z,84.70
2023-05-23T09:52:44.411Z,84.70
2023-05-23T09:55:47.158Z,84.80
2023-05-23T09:58:50.459Z,84.80
2023-05-23T10:01:55.796Z,84.80
2023-05-23T10:04:58.939Z,84.90
2023-05-23T10:08:05.321Z,84.80
2023-05-23T10:11:13.755Z,84.80
2023-05-23T10:14:17.619Z,85.00
2023-05-23T10:17:37.494Z,85.00
2023-05-23T10:20:43.800Z,85.00
2023-05-23T10:23:48.298Z,85.00
2023-05-23T10:26:50.668Z,85.00
2023-05-23T10:29:53.209Z,85.00
2023-05-23T10:32:58.039Z,84.90
2023-05-23T10:36:09.570Z,84.90
2023-05-23T10:39:23.253Z,84.80
2023-05-23T10:42:34.399Z,84.70
2023-05-23T10:45:47.291Z,84.60
2023-05-23T10:48:57.615Z,84.60
2023-05-23T10:52:00.757Z,84.40
2023-05-23T10:55:03.241Z,84.30
2023-05-23T10:58:12.070Z,84.30
2023-05-23T11:01:18.247Z,84.20
2023-05-23T11:04:28.467Z,84.10
2023-05-23T11:07:31.396Z,84.10
2023-05-23T11:10:33.718Z,84.00
2023-05-23T11:13:58.026Z,83.80
2023-05-23T11:17:12.761Z,83.80
2023-05-23T11:20:17.237Z,83.70
2023-05-23T11:23:19.787Z,83.60
2023-05-23T11:26:32.527Z,83.40
2023-05-23T11:29:35.130Z,83.40
2023-05-23T11:32:38.049Z,83.30
2023-05-23T11:35:52.058Z,83.10
2023-05-23T11:38:55.520Z,83.20
2023-05-23T11:42:05.014Z,83.00
2023-05-23T11:45:09.807Z,83.10
2023-05-23T11:48:14.261Z,83.00
2023-05-23T11:51:17.525Z,83.00
2023-05-23T11:54:26.855Z,82.90
2023-05-23T11:57:29.310Z,82.80
2023-05-23T12:00:31.891Z,82.80
2023-05-23T12:03:48.621Z,82.70
2023-05-23T12:06:51.904Z,82.80
2023-05-23T12:09:57.554Z,82.60
2023-05-23T12:13:00.074Z,82.60
2023-05-23T12:16:04.770Z,82.50
2023-05-23T12:19:07.708Z,82.50
2023-05-23T12:22:10.099Z,82.50
2023-05-23T12:25:12.530Z,82.30
2023-05-23T12:28:16.391Z,82.30
2023-05-23T12:31:22.941Z,82.10
2023-05-23T12:34:25.316Z,82.00
2023-05-23T12:37:27.735Z,81.90
2023-05-23T12:40:30.211Z,81.90
2023-05-23T12:43:32.841Z,81.90
2023-05-23T12:46:35.581Z,81.70
2023-05-23T12:49:38.677Z,81.60
2023-05-23T12:52:41.144Z,81.50
2023-05-23T12:55:43.733Z,81.60
2023-05-23T12:58:46.266Z,81.50
2023-05-23T13:01:48.584Z,81.40
2023-05-23T13:04:50.889Z,81.30
2023-05-23T13:07:53.205Z,81.20
2023-05-23T13:10:55.702Z,81.20
2023-05-23T13:13:58.413Z,81.10
2023-05-23T13:17:01.054Z,81.00
2023-05-23T13:20:05.428Z,81.00
2023-05-23T13:23:08.390Z,80.90
2023-05-23T13:26:10.924Z,81.00
2023-05-23T13:29:13.240Z,80.90
2023-05-23T13:32:15.863Z,80.80
2023-05-23T13:35:18.388Z,80.60
2023-05-23T13:38:26.681Z,80.70
2023-05-23T13:41:29.303Z,80.70
2023-05-23T13:44:31.625Z,80.70
2023-05-23T13:47:34.171Z,80.70
2023-05-23T13:50:36.786Z,80.60
2023-05-23T13:53:39.261Z,80.50
2023-05-23T13:56:42.005Z,80.30
2023-05-23T13:59:44.391Z,80.00
2023-05-23T14:02:46.929Z,80.00
2023-05-23T14:05:49.437Z,80.00
2023-05-23T14:08:51.931Z,80.00
2023-05-23T14:11:54.246Z,80.00
2023-05-23T14:14:56.832Z,79.80
2023-05-23T14:17:59.451Z,79.80
2023-05-23T14:21:01.724Z,79.70
2023-05-23T14:24:04.221Z,79.50
2023-05-23T14:27:08.684Z,79.50
2023-05-23T14:30:12.980Z,79.60
2023-05-23T14:33:15.747Z,79.60
2023-05-23T14:36:18.299Z,79.50
2023-05-23T14:39:20.541Z,79.40
2023-05-23T14:42:22.884Z,79.70
2023-05-23T14:45:25.415Z,79.50
2023-05-23T14:48:31.047Z,79.50
2023-05-23T14:51:46.236Z,79.50
2023-05-23T14:54:52.528Z,79.20
2023-05-23T14:57:54.938Z,79.30
2023-05-23T15:00:57.686Z,79.30
2023-05-23T15:04:00.608Z,79.20
2023-05-23T15:07:02.999Z,79.10
2023-05-23T15:10:06.856Z,78.80
2023-05-23T15:13:09.340Z,78.60
2023-05-23T15:16:11.979Z,78.40
2023-05-23T15:19:14.409Z,78.30
2023-05-23T15:22:34.341Z,77.90
2023-05-23T15:25:49.446Z,78.00
2023-05-23T15:28:52.216Z,77.80
2023-05-23T15:31:54.520Z,77.20
2023-05-23T15:34:56.799Z,77.60
2023-05-23T15:37:59.065Z,77.50
2023-05-23T15:41:01.669Z,77.60
2023-05-23T15:44:04.074Z,77.40
2023-05-23T15:47:06.481Z,77.20
2023-05-23T15:50:09.288Z,77.40
2023-05-23T15:53:11.611Z,77.20
2023-05-23T15:56:15.977Z,77.30
2023-05-23T15:59:18.484Z,77.30
2023-05-23T16:02:20.865Z,77.10
2023-05-23T16:05:24.032Z,76.90
2023-05-23T16:08:26.684Z,76.60
2023-05-23T16:11:28.946Z,76.80
2023-05-23T16:14:32.067Z,77.00
2023-05-23T16:17:34.424Z,76.90
2023-05-23T16:20:36.760Z,76.80
2023-05-23T16:23:39.065Z,76.90
2023-05-23T16:26:41.423Z,76.70
2023-05-23T16:29:43.652Z,76.50
2023-05-23T16:32:46.086Z,76.40
2023-05-23T16:35:48.476Z,76.40
2023-05-23T16:38:51.339Z,76.30
2023-05-23T16:41:54.808Z,76.40
2023-05-23T16:44:57.391Z,76.60
2023-05-23T16:48:01.324Z,76.50
2023-05-23T16:51:03.715Z,76.60
2023-05-23T16:54:06.034Z,76.60
2023-05-23T16:57:08.590Z,76.70
2023-05-23T17:00:11.720Z,76.50
2023-05-23T17:03:14.205Z,76.50
2023-05-23T17:06:16.518Z,76.70
2023-05-23T17:09:19.409Z,76.80
2023-05-23T17:12:22.022Z,76.60
2023-05-23T17:15:24.817Z,76.90
2023-05-23T17:18:27.125Z,76.90
2023-05-23T17:21:29.420Z,77.00
2023-05-23T17:24:31.751Z,77.00
2023-05-23T17:27:34.450Z,77.00
2023-05-23T17:30:36.740Z,77.10
2023-05-23T17:33:39.257Z,77.30
2023-05-23T17:36:41.582Z,77.20
2023-05-23T17:39:43.973Z,77.40
2023-05-23T17:42:46.310Z,77.50
2023-05-23T17:45:48.627Z,77.60
2023-05-23T17:48:51.831Z,77.70
2023-05-23T17:51:54.184Z,77.80
2023-05-23T17:54:57.810Z,77.90
2023-05-23T17:58:00.127Z,78.10
2023-05-23T18:01:02.711Z,78.20
2023-05-23T18:04:05.053Z,78.40
2023-05-23T18:07:10.666Z,78.40
2023-05-23T18:10:13.362Z,78.50
2023-05-23T18:13:15.913Z,78.60
2023-05-23T18:16:18.288Z,78.70
2023-05-23T18:19:20.805Z,78.80
2023-05-23T18:22:23.143Z,78.90
2023-05-23T18:25:28.525Z,78.90
2023-05-23T18:28:31.032Z,79.00
2023-05-23T18:31:33.413Z,79.20
2023-05-23T18:34:35.696Z,79.20
2023-05-23T18:37:38.865Z,79.40
2023-05-23T18:40:41.344Z,79.40
2023-05-23T18:43:44.063Z,79.70
2023-05-23T18:46:46.817Z,79.70
2023-05-23T18:49:49.943Z,80.00
2023-05-23T18:52:52.145Z,80.00
2023-05-23T18:55:54.932Z,80.00
2023-05-23T18:58:57.259Z,80.10
2023-05-23T19:02:00.606Z,80.10
2023-05-23T19:05:03.145Z,80.30
2023-05-23T19:11:41.249Z,80.30
2023-05-23T19:14:43.762Z,80.40
2023-05-23T19:17:48.353Z,80.40
2023-05-23T19:20:52.043Z,80.30
2023-05-23T19:23:55.151Z,81.00
2023-05-23T19:27:00.022Z,80.40
2023-05-23T19:30:02.520Z,80.50
2023-05-23T19:33:05.755Z,80.50
2023-05-23T19:36:08.160Z,80.60
2023-05-23T19:39:12.817Z,80.70
2023-05-23T19:42:15.452Z,80.60
2023-05-23T19:45:19.423Z,80.70
2023-05-23T19:48:21.878Z,80.80
2023-05-23T19:51:25.411Z,80.90
2023-05-23T19:54:28.395Z,80.90
2023-05-23T19:57:32.599Z,80.90
2023-05-23T20:00:35.287Z,81.00
2023-05-23T20:03:39.736Z,81.10
2023-05-23T21:26:29.868Z,82.00
2023-05-23T21:29:32.452Z,82.00
2023-05-23T21:32:34.950Z,82.20
2023-05-23T21:35:38.053Z,82.30
2023-05-23T21:38:40.871Z,82.30
2023-05-23T21:41:43.314Z,82.20
2023-05-23T21:44:45.771Z,82.30
2023-05-23T21:47:48.111Z,82.20
2023-05-23T21:50:50.413Z,82.30
2023-05-23T21:53:52.738Z,82.30
2023-05-23T21:56:55.109Z,82.30
2023-05-23T21:59:57.396Z,82.20
2023-05-23T22:02:59.772Z,82.50
2023-05-23T22:06:02.316Z,82.20
2023-05-23T22:09:05.964Z,82.20
2023-05-23T22:12:08.506Z,82.00
2023-05-23T22:15:11.423Z,82.00
2023-05-23T22:18:13.976Z,82.00
2023-05-23T22:21:16.311Z,82.00
2023-05-23T22:24:18.634Z,82.00
2023-05-23T22:27:21.049Z,82.00
2023-05-23T22:30:23.437Z,81.80
2023-05-23T22:33:25.799Z,81.90
2023-05-23T22:36:28.085Z,81.80
2023-05-23T22:39:30.424Z,81.70
2023-05-23T22:42:32.723Z,81.70
2023-05-23T22:45:40.852Z,81.70
2023-05-23T22:48:43.081Z,81.80
2023-05-23T22:51:45.433Z,81.80
2023-05-23T22:54:47.772Z,81.70
2023-05-23T22:57:50.117Z,81.60
2023-05-23T23:00:55.298Z,81.60
2023-05-23T23:03:57.690Z,81.60
2023-05-23T23:07:01.571Z,81.60
2023-05-23T23:10:04.061Z,81.60
2023-05-23T23:13:06.511Z,81.60
2023-05-23T23:16:08.931Z,81.60
2023-05-23T23:19:11.180Z,81.60
2023-05-23T23:22:13.544Z,81.60
2023-05-23T23:25:19.042Z,81.50
2023-05-23T23:28:21.650Z,81.50
2023-05-23T23:31:24.071Z,81.50
2023-05-23T23:34:26.832Z,81.50
2023-05-23T23:37:29.117Z,81.40
2023-05-23T23:40:31.492Z,81.40
2023-05-23T23:43:33.816Z,81.40
2023-05-23T23:46:36.299Z,81.50
2023-05-23T23:49:38.808Z,81.40
2023-05-23T23:52:41.605Z,81.40
2023-05-23T23:55:43.918Z,81.40
2023-05-23T23:58:46.189Z,81.50
